sensor_id;sensor_type;location;lat;lon;timestamp;temperature;humidity
4451;DHT22;2238;50.180;9.230;2023-02-15T02:12:45;0.50;99.90
4451;DHT22;2238;50.180;9.230;2023-02-15T02:15:58;0.50;99.90
4451;DHT22;2238;50.180;9.230;2023-02-15T02:22:47;0.40;99.90
4451;DHT22;2238;50.180;9.230;2023-02-15T02:29:24;0.40;99.90
4451;DHT22;2238;50.180;9.230;2023-02-15T02:36:14;0.40;99.90
4451;DHT22;2238;50.180;9.230;2023-02-15T02:39:33;0.30;99.90
4451;DHT22;2238;50.180;9.230;2023-02-15T02:42:49;0.40;99.90
4451;DHT22;2238;50.180;9.230;2023-02-15T02:45:58;0.40;99.90
4451;DHT22;2238;50.180;9.230;2023-02-15T02:52:06;0.40;99.90
4451;DHT22;2238;50.180;9.230;2023-02-15T02:55:17;0.40;99.90
4451;DHT22;2238;50.180;9.230;2023-02-15T02:58:29;0.50;99.90
4451;DHT22;2238;50.180;9.230;2023-02-15T03:01:34;0.50;99.90
4451;DHT22;2238;50.180;9.230;2023-02-15T03:04:39;0.60;99.90
4451;DHT22;2238;50.180;9.230;2023-02-15T03:07:43;0.50;99.90
4451;DHT22;2238;50.180;9.230;2023-02-15T03:10:48;0.40;99.90
4451;DHT22;2238;50.180;9.230;2023-02-15T03:19:57;0.50;99.90
4451;DHT22;2238;50.180;9.230;2023-02-15T03:23:03;0.50;99.90
4451;DHT22;2238;50.180;9.230;2023-02-15T03:26:06;0.40;99.90
4451;DHT22;2238;50.180;9.230;2023-02-15T03:32:10;0.50;99.90
4451;DHT22;2238;50.180;9.230;2023-02-15T03:38:17;0.40;99.90
4451;DHT22;2238;50.180;9.230;2023-02-15T03:41:24;0.70;99.90
4451;DHT22;2238;50.180;9.230;2023-02-15T03:44:30;0.90;99.90
4451;DHT22;2238;50.180;9.230;2023-02-15T03:47:39;0.90;99.90
4451;DHT22;2238;50.180;9.230;2023-02-15T03:54:07;1.00;99.90
4451;DHT22;2238;50.180;9.230;2023-02-15T03:57:21;0.90;99.90
4451;DHT22;2238;50.180;9.230;2023-02-15T04:01:00;0.90;99.90
4451;DHT22;2238;50.180;9.230;2023-02-15T04:04:33;0.90;99.90
4451;DHT22;2238;50.180;9.230;2023-02-15T04:29:38;0.70;99.90
4451;DHT22;2238;50.180;9.230;2023-02-15T04:32:39;0.50;99.90
4451;DHT22;2238;50.180;9.230;2023-02-15T05:17:54;0.70;99.90
4451;DHT22;2238;50.180;9.230;2023-02-15T05:48:24;0.40;99.90
4451;DHT22;2238;50.180;9.230;2023-02-15T05:54:26;0.40;99.90
4451;DHT22;2238;50.180;9.230;2023-02-15T06:12:31;0.50;99.90
4451;DHT22;2238;50.180;9.230;2023-02-15T06:15:32;0.40;99.90
4451;DHT22;2238;50.180;9.230;2023-02-15T07:31:01;0.70;99.90
4451;DHT22;2238;50.180;9.230;2023-02-15T07:40:05;0.50;99.90
4451;DHT22;2238;50.180;9.230;2023-02-15T07:46:10;0.80;99.90
4451;DHT22;2238;50.180;9.230;2023-02-15T08:13:42;1.50;99.90
4451;DHT22;2238;50.180;9.230;2023-02-15T08:16:55;1.40;99.90
4451;DHT22;2238;50.180;9.230;2023-02-15T08:29:01;1.40;99.90
4451;DHT22;2238;50.180;9.230;2023-02-15T08:32:07;1.40;99.90
4451;DHT22;2238;50.180;9.230;2023-02-15T08:56:28;1.20;99.90
4451;DHT22;2238;50.180;9.230;2023-02-15T09:11:37;1.70;99.90
4451;DHT22;2238;50.180;9.230;2023-02-15T09:23:42;1.50;99.90
4451;DHT22;2238;50.180;9.230;2023-02-15T09:26:45;1.40;99.90
4451;DHT22;2238;50.180;9.230;2023-02-15T09:39:03;2.00;99.90
4451;DHT22;2238;50.180;9.230;2023-02-15T09:46:18;2.50;99.90
4451;DHT22;2238;50.180;9.230;2023-02-15T10:02:53;2.40;99.90
4451;DHT22;2238;50.180;9.230;2023-02-15T10:06:31;2.60;99.90
4451;DHT22;2238;50.180;9.230;2023-02-15T10:16:40;2.60;99.90
4451;DHT22;2238;50.180;9.230;2023-02-15T10:26:20;2.70;99.90
4451;DHT22;2238;50.180;9.230;2023-02-15T10:35:39;2.80;99.90
4451;DHT22;2238;50.180;9.230;2023-02-15T10:54:38;2.90;99.90
4451;DHT22;2238;50.180;9.230;2023-02-15T11:01:06;3.00;99.90
4451;DHT22;2238;50.180;9.230;2023-02-15T11:07:32;3.20;99.90
4451;DHT22;2238;50.180;9.230;2023-02-15T11:10:54;3.10;99.90
4451;DHT22;2238;50.180;9.230;2023-02-15T11:14:05;3.20;99.90
4451;DHT22;2238;50.180;9.230;2023-02-15T11:17:14;3.10;99.90
4451;DHT22;2238;50.180;9.230;2023-02-15T11:20:24;3.30;99.90
4451;DHT22;2238;50.180;9.230;2023-02-15T11:23:27;3.40;99.90
4451;DHT22;2238;50.180;9.230;2023-02-15T11:51:21;4.00;99.90
4451;DHT22;2238;50.180;9.230;2023-02-15T11:54:34;3.90;99.90
4451;DHT22;2238;50.180;9.230;2023-02-15T11:57:43;4.00;99.90
4451;DHT22;2238;50.180;9.230;2023-02-15T12:00:46;4.20;99.90
4451;DHT22;2238;50.180;9.230;2023-02-15T12:04:10;4.10;99.90
4451;DHT22;2238;50.180;9.230;2023-02-15T12:07:17;4.30;99.90
4451;DHT22;2238;50.180;9.230;2023-02-15T12:13:25;4.00;99.90
4451;DHT22;2238;50.180;9.230;2023-02-15T12:16:27;3.90;99.90
4451;DHT22;2238;50.180;9.230;2023-02-15T12:19:39;3.80;99.90
4451;DHT22;2238;50.180;9.230;2023-02-15T12:22:49;3.90;99.90
4451;DHT22;2238;50.180;9.230;2023-02-15T12:25:54;4.10;99.90
4451;DHT22;2238;50.180;9.230;2023-02-15T12:28:59;4.20;99.90
4451;DHT22;2238;50.180;9.230;2023-02-15T12:32:03;4.30;99.90
4451;DHT22;2238;50.180;9.230;2023-02-15T12:35:13;4.40;99.90
4451;DHT22;2238;50.180;9.230;2023-02-15T12:41:22;4.30;99.90
4451;DHT22;2238;50.180;9.230;2023-02-15T12:44:34;4.60;99.90
4451;DHT22;2238;50.180;9.230;2023-02-15T12:47:36;4.80;99.90
4451;DHT22;2238;50.180;9.230;2023-02-15T12:50:36;5.20;99.90
4451;DHT22;2238;50.180;9.230;2023-02-15T12:53:37;5.40;99.90
4451;DHT22;2238;50.180;9.230;2023-02-15T12:56:38;5.20;99.90
4451;DHT22;2238;50.180;9.230;2023-02-15T13:03:23;5.20;99.90
4451;DHT22;2238;50.180;9.230;2023-02-15T13:06:29;5.40;99.90
4451;DHT22;2238;50.180;9.230;2023-02-15T13:12:31;5.20;99.90
4451;DHT22;2238;50.180;9.230;2023-02-15T13:15:46;6.40;99.90
4451;DHT22;2238;50.180;9.230;2023-02-15T13:18:50;5.30;99.90
4451;DHT22;2238;50.180;9.230;2023-02-15T13:21:53;5.40;99.90
4451;DHT22;2238;50.180;9.230;2023-02-15T13:24:57;5.20;99.90
4451;DHT22;2238;50.180;9.230;2023-02-15T13:28:01;5.30;99.90
4451;DHT22;2238;50.180;9.230;2023-02-15T13:31:02;5.30;99.90
4451;DHT22;2238;50.180;9.230;2023-02-15T13:34:24;5.30;99.90
4451;DHT22;2238;50.180;9.230;2023-02-15T13:40:53;5.20;99.90
4451;DHT22;2238;50.180;9.230;2023-02-15T13:44:29;5.30;99.90
4451;DHT22;2238;50.180;9.230;2023-02-15T13:47:45;5.30;99.90
4451;DHT22;2238;50.180;9.230;2023-02-15T13:51:13;5.40;99.90
4451;DHT22;2238;50.180;9.230;2023-02-15T13:58:00;5.30;99.90
4451;DHT22;2238;50.180;9.230;2023-02-15T14:04:52;5.20;99.90
4451;DHT22;2238;50.180;9.230;2023-02-15T14:08:22;5.10;99.90
4451;DHT22;2238;50.180;9.230;2023-02-15T14:18:12;5.10;99.90
4451;DHT22;2238;50.180;9.230;2023-02-15T14:21:32;4.10;99.90
4451;DHT22;2238;50.180;9.230;2023-02-15T14:31:15;5.40;99.90
4451;DHT22;2238;50.180;9.230;2023-02-15T14:34:25;5.10;99.90
4451;DHT22;2238;50.180;9.230;2023-02-15T14:37:51;5.10;99.90
4451;DHT22;2238;50.180;9.230;2023-02-15T14:44:27;5.10;99.90
4451;DHT22;2238;50.180;9.230;2023-02-15T14:47:35;5.10;99.90
4451;DHT22;2238;50.180;9.230;2023-02-15T14:50:46;5.10;99.90
4451;DHT22;2238;50.180;9.230;2023-02-15T14:53:47;5.10;99.90
4451;DHT22;2238;50.180;9.230;2023-02-15T15:00:01;5.30;99.90
4451;DHT22;2238;50.180;9.230;2023-02-15T15:03:23;5.20;99.90
4451;DHT22;2238;50.180;9.230;2023-02-15T15:06:43;5.20;99.90
4451;DHT22;2238;50.180;9.230;2023-02-15T15:09:46;5.00;99.90
4451;DHT22;2238;50.180;9.230;2023-02-15T15:12:49;5.00;99.90
4451;DHT22;2238;50.180;9.230;2023-02-15T15:15:53;4.90;99.90
4451;DHT22;2238;50.180;9.230;2023-02-15T15:18:53;4.50;99.90
4451;DHT22;2238;50.180;9.230;2023-02-15T15:21:56;4.40;99.90
4451;DHT22;2238;50.180;9.230;2023-02-15T15:24:58;4.30;99.90
4451;DHT22;2238;50.180;9.230;2023-02-15T15:27:59;4.30;99.90
4451;DHT22;2238;50.180;9.230;2023-02-15T15:31:24;4.20;99.90
4451;DHT22;2238;50.180;9.230;2023-02-15T15:48:28;4.10;99.90
4451;DHT22;2238;50.180;9.230;2023-02-15T15:51:32;4.10;99.90
4451;DHT22;2238;50.180;9.230;2023-02-15T15:54:33;4.10;99.90
4451;DHT22;2238;50.180;9.230;2023-02-15T15:57:38;4.10;99.90
4451;DHT22;2238;50.180;9.230;2023-02-15T16:00:46;4.00;99.90
4451;DHT22;2238;50.180;9.230;2023-02-15T16:03:50;3.80;99.90
4451;DHT22;2238;50.180;9.230;2023-02-15T16:06:52;3.70;99.90
4451;DHT22;2238;50.180;9.230;2023-02-15T16:10:01;3.80;99.90
4451;DHT22;2238;50.180;9.230;2023-02-15T16:13:05;3.60;99.90
4451;DHT22;2238;50.180;9.230;2023-02-15T16:16:06;3.50;99.90
4451;DHT22;2238;50.180;9.230;2023-02-15T16:19:18;3.40;99.90
4451;DHT22;2238;50.180;9.230;2023-02-15T16:22:21;3.30;99.90
4451;DHT22;2238;50.180;9.230;2023-02-15T16:25:26;3.10;99.90
4451;DHT22;2238;50.180;9.230;2023-02-15T16:28:30;3.30;99.90
4451;DHT22;2238;50.180;9.230;2023-02-15T16:31:31;3.40;99.90
4451;DHT22;2238;50.180;9.230;2023-02-15T16:34:32;3.50;99.90
4451;DHT22;2238;50.180;9.230;2023-02-15T16:37:34;3.40;99.90
4451;DHT22;2238;50.180;9.230;2023-02-15T16:43:36;2.60;99.90
4451;DHT22;2238;50.180;9.230;2023-02-15T16:46:45;2.40;99.90
4451;DHT22;2238;50.180;9.230;2023-02-15T16:49:48;2.50;99.90
4451;DHT22;2238;50.180;9.230;2023-02-15T16:52:49;2.30;99.90
4451;DHT22;2238;50.180;9.230;2023-02-15T16:55:55;2.20;99.90
4451;DHT22;2238;50.180;9.230;2023-02-15T16:58:57;2.10;99.90
4451;DHT22;2238;50.180;9.230;2023-02-15T17:01:58;2.10;99.90
4451;DHT22;2238;50.180;9.230;2023-02-15T17:05:20;2.30;99.90
4451;DHT22;2238;50.180;9.230;2023-02-15T17:08:41;2.10;99.90
4451;DHT22;2238;50.180;9.230;2023-02-15T17:11:43;2.10;99.90
4451;DHT22;2238;50.180;9.230;2023-02-15T17:14:44;1.90;99.90
4451;DHT22;2238;50.180;9.230;2023-02-15T17:17:44;1.80;99.90
4451;DHT22;2238;50.180;9.230;2023-02-15T17:20:48;1.90;99.90
4451;DHT22;2238;50.180;9.230;2023-02-15T17:23:51;1.60;99.90
4451;DHT22;2238;50.180;9.230;2023-02-15T17:27:00;1.60;99.90
4451;DHT22;2238;50.180;9.230;2023-02-15T17:30:12;1.60;99.90
4451;DHT22;2238;50.180;9.230;2023-02-15T17:36:22;1.30;99.90
4451;DHT22;2238;50.180;9.230;2023-02-15T17:39:23;1.40;99.90
4451;DHT22;2238;50.180;9.230;2023-02-15T17:42:24;1.50;99.90
4451;DHT22;2238;50.180;9.230;2023-02-15T17:45:33;1.30;99.90
4451;DHT22;2238;50.180;9.230;2023-02-15T17:48:36;2.60;99.90
4451;DHT22;2238;50.180;9.230;2023-02-15T17:51:38;2.80;99.90
4451;DHT22;2238;50.180;9.230;2023-02-15T17:54:40;2.80;99.90
4451;DHT22;2238;50.180;9.230;2023-02-15T17:57:59;1.60;99.90
4451;DHT22;2238;50.180;9.230;2023-02-15T18:01:04;1.00;99.90
4451;DHT22;2238;50.180;9.230;2023-02-15T18:04:24;1.00;99.90
4451;DHT22;2238;50.180;9.230;2023-02-15T18:07:43;0.80;99.90
4451;DHT22;2238;50.180;9.230;2023-02-15T18:11:02;0.90;99.90
4451;DHT22;2238;50.180;9.230;2023-02-15T18:14:22;0.90;99.90
4451;DHT22;2238;50.180;9.230;2023-02-15T18:17:42;0.90;99.90
4451;DHT22;2238;50.180;9.230;2023-02-15T18:20:43;-0.50;99.90
4451;DHT22;2238;50.180;9.230;2023-02-15T18:23:44;0.80;99.90
4451;DHT22;2238;50.180;9.230;2023-02-15T18:26:44;0.70;99.90
4451;DHT22;2238;50.180;9.230;2023-02-15T18:29:46;0.80;99.90
4451;DHT22;2238;50.180;9.230;2023-02-15T18:32:50;0.90;99.90
4451;DHT22;2238;50.180;9.230;2023-02-15T18:35:51;0.90;99.90
4451;DHT22;2238;50.180;9.230;2023-02-15T18:38:52;0.80;99.90
4451;DHT22;2238;50.180;9.230;2023-02-15T18:41:53;1.00;99.90
4451;DHT22;2238;50.180;9.230;2023-02-15T18:44:56;1.10;99.90
4451;DHT22;2238;50.180;9.230;2023-02-15T18:47:57;1.20;99.90
4451;DHT22;2238;50.180;9.230;2023-02-15T18:50:58;0.90;99.90
4451;DHT22;2238;50.180;9.230;2023-02-15T18:53:59;1.10;99.90
4451;DHT22;2238;50.180;9.230;2023-02-15T18:56:59;0.90;99.90
4451;DHT22;2238;50.180;9.230;2023-02-15T19:00:00;0.90;99.90
4451;DHT22;2238;50.180;9.230;2023-02-15T19:03:01;1.10;99.90
4451;DHT22;2238;50.180;9.230;2023-02-15T19:06:02;0.90;99.90
4451;DHT22;2238;50.180;9.230;2023-02-15T19:09:11;0.70;99.90
4451;DHT22;2238;50.180;9.230;2023-02-15T19:12:13;0.70;99.90
4451;DHT22;2238;50.180;9.230;2023-02-15T19:15:25;0.70;99.90
4451;DHT22;2238;50.180;9.230;2023-02-15T19:18:26;0.50;99.90
4451;DHT22;2238;50.180;9.230;2023-02-15T19:21:30;0.60;99.90
4451;DHT22;2238;50.180;9.230;2023-02-15T19:24:37;0.50;99.90
4451;DHT22;2238;50.180;9.230;2023-02-15T19:27:38;0.40;99.90
4451;DHT22;2238;50.180;9.230;2023-02-15T19:30:39;0.30;99.90
4451;DHT22;2238;50.180;9.230;2023-02-15T19:33:39;0.30;99.90
4451;DHT22;2238;50.180;9.230;2023-02-15T19:36:41;0.30;99.90
4451;DHT22;2238;50.180;9.230;2023-02-15T19:39:42;0.20;99.90
4451;DHT22;2238;50.180;9.230;2023-02-15T19:42:42;0.30;99.90
4451;DHT22;2238;50.180;9.230;2023-02-15T19:45:43;0.20;99.90
4451;DHT22;2238;50.180;9.230;2023-02-15T19:48:44;0.40;99.90
4451;DHT22;2238;50.180;9.230;2023-02-15T19:51:46;0.40;99.90
4451;DHT22;2238;50.180;9.230;2023-02-15T19:54:47;0.40;99.90
4451;DHT22;2238;50.180;9.230;2023-02-15T19:57:49;0.40;99.90
4451;DHT22;2238;50.180;9.230;2023-02-15T20:00:51;0.70;99.90
4451;DHT22;2238;50.180;9.230;2023-02-15T20:03:52;0.90;99.90
4451;DHT22;2238;50.180;9.230;2023-02-15T20:06:56;1.10;99.90
4451;DHT22;2238;50.180;9.230;2023-02-15T20:09:57;0.90;99.90
4451;DHT22;2238;50.180;9.230;2023-02-15T20:12:57;0.70;99.90
4451;DHT22;2238;50.180;9.230;2023-02-15T20:15:58;0.50;99.90
4451;DHT22;2238;50.180;9.230;2023-02-15T20:19:00;0.80;99.90
4451;DHT22;2238;50.180;9.230;2023-02-15T20:22:01;0.60;99.90
4451;DHT22;2238;50.180;9.230;2023-02-15T20:25:02;0.90;99.90
4451;DHT22;2238;50.180;9.230;2023-02-15T20:28:02;1.00;99.90
4451;DHT22;2238;50.180;9.230;2023-02-15T20:31:03;1.20;99.90
4451;DHT22;2238;50.180;9.230;2023-02-15T20:34:04;1.10;99.90
4451;DHT22;2238;50.180;9.230;2023-02-15T20:37:04;1.00;99.90
4451;DHT22;2238;50.180;9.230;2023-02-15T20:40:25;1.00;99.90
4451;DHT22;2238;50.180;9.230;2023-02-15T20:43:26;1.00;99.90
4451;DHT22;2238;50.180;9.230;2023-02-15T20:46:26;1.10;99.90
4451;DHT22;2238;50.180;9.230;2023-02-15T20:49:27;0.70;99.90
4451;DHT22;2238;50.180;9.230;2023-02-15T20:52:28;0.40;99.90
4451;DHT22;2238;50.180;9.230;2023-02-15T20:55:30;0.10;99.90
4451;DHT22;2238;50.180;9.230;2023-02-15T20:58:31;0.30;99.90
4451;DHT22;2238;50.180;9.230;2023-02-15T21:01:31;0.00;99.90
4451;DHT22;2238;50.180;9.230;2023-02-15T21:04:32;-0.40;99.90
4451;DHT22;2238;50.180;9.230;2023-02-15T21:07:33;-0.50;99.90
4451;DHT22;2238;50.180;9.230;2023-02-15T21:10:33;-0.50;99.90
4451;DHT22;2238;50.180;9.230;2023-02-15T21:13:34;-0.30;99.90
4451;DHT22;2238;50.180;9.230;2023-02-15T21:16:35;-0.30;99.90
4451;DHT22;2238;50.180;9.230;2023-02-15T21:19:36;-0.10;99.90
4451;DHT22;2238;50.180;9.230;2023-02-15T21:22:37;-0.10;99.90
4451;DHT22;2238;50.180;9.230;2023-02-15T21:25:41;-0.30;99.90
4451;DHT22;2238;50.180;9.230;2023-02-15T21:28:42;-0.30;99.90
4451;DHT22;2238;50.180;9.230;2023-02-15T21:31:43;-0.10;99.90
4451;DHT22;2238;50.180;9.230;2023-02-15T21:34:44;-0.10;99.90
4451;DHT22;2238;50.180;9.230;2023-02-15T21:37:47;0.10;99.90
4451;DHT22;2238;50.180;9.230;2023-02-15T21:40:48;0.00;99.90
4451;DHT22;2238;50.180;9.230;2023-02-15T21:43:49;-0.20;99.90
4451;DHT22;2238;50.180;9.230;2023-02-15T21:47:27;0.20;99.90
4451;DHT22;2238;50.180;9.230;2023-02-15T21:50:50;-0.20;99.90
4451;DHT22;2238;50.180;9.230;2023-02-15T21:54:11;0.20;99.90
4451;DHT22;2238;50.180;9.230;2023-02-15T21:57:14;0.30;99.90
4451;DHT22;2238;50.180;9.230;2023-02-15T22:00:19;0.30;99.90
4451;DHT22;2238;50.180;9.230;2023-02-15T22:03:22;-0.10;99.90
4451;DHT22;2238;50.180;9.230;2023-02-15T22:06:23;-0.30;99.90
4451;DHT22;2238;50.180;9.230;2023-02-15T22:09:25;0.00;99.90
4451;DHT22;2238;50.180;9.230;2023-02-15T22:12:26;0.30;99.90
4451;DHT22;2238;50.180;9.230;2023-02-15T22:15:33;0.30;99.90
4451;DHT22;2238;50.180;9.230;2023-02-15T22:18:33;0.50;99.90
4451;DHT22;2238;50.180;9.230;2023-02-15T22:21:34;-0.20;99.90
4451;DHT22;2238;50.180;9.230;2023-02-15T22:24:35;-0.10;99.90
4451;DHT22;2238;50.180;9.230;2023-02-15T22:27:38;0.30;99.90
4451;DHT22;2238;50.180;9.230;2023-02-15T22:30:39;0.50;99.90
4451;DHT22;2238;50.180;9.230;2023-02-15T22:33:40;0.60;99.90
4451;DHT22;2238;50.180;9.230;2023-02-15T22:36:40;-0.10;99.90
4451;DHT22;2238;50.180;9.230;2023-02-15T22:39:41;-0.30;99.90
4451;DHT22;2238;50.180;9.230;2023-02-15T22:42:44;-0.50;99.90
4451;DHT22;2238;50.180;9.230;2023-02-15T22:45:46;-0.50;99.90
4451;DHT22;2238;50.180;9.230;2023-02-15T22:48:47;-0.20;99.90
4451;DHT22;2238;50.180;9.230;2023-02-15T22:51:49;-0.10;99.90
4451;DHT22;2238;50.180;9.230;2023-02-15T22:54:49;-0.60;99.90
4451;DHT22;2238;50.180;9.230;2023-02-15T22:57:52;-0.60;99.90
4451;DHT22;2238;50.180;9.230;2023-02-15T23:00:53;-0.30;99.90
4451;DHT22;2238;50.180;9.230;2023-02-15T23:03:54;-0.30;99.90
4451;DHT22;2238;50.180;9.230;2023-02-15T23:25:09;-0.40;99.90
4451;DHT22;2238;50.180;9.230;2023-02-15T23:28:25;-0.60;99.90
4451;DHT22;2238;50.180;9.230;2023-02-15T23:31:32;-0.80;99.90
4451;DHT22;2238;50.180;9.230;2023-02-15T23:34:33;-0.40;99.90
4451;DHT22;2238;50.180;9.230;2023-02-15T23:37:34;-0.20;99.90
4451;DHT22;2238;50.180;9.230;2023-02-15T23:40:34;-0.40;99.90
4451;DHT22;2238;50.180;9.230;2023-02-15T23:44:01;-0.20;99.90
4451;DHT22;2238;50.180;9.230;2023-02-15T23:47:02;-0.20;99.90
4451;DHT22;2238;50.180;9.230;2023-02-15T23:50:14;-0.50;99.90
4451;DHT22;2238;50.180;9.230;2023-02-15T23:53:15;-0.60;99.90
4451;DHT22;2238;50.180;9.230;2023-02-15T23:56:16;-0.40;99.90
4451;DHT22;2238;50.180;9.230;2023-02-15T23:59:22;-0.60;99.90
